Beaver, Oklahoma
Current Conditions -  °F | °C
As of 11:15 PM on Friday 21 Nov 2014 (Local Time) from KLBL Reporting Station
Clear Clear  
Wind Chill: 34°   Ceiling: Unl
Heat Index: 39°   Visibility: 10mi
Dew Point: 32°   Wind: 8mph
Humidity: 75%   Direction: 180°S
Pressure: 30.01"   Gusts: NA
Location:  36.82°N, 100.52°W
Report Text: KLBL 220515Z AUTO 18007KT 10SM CLR 04/00 A3001 RMK AO1
Loading
Personal Weather Stations






























Interactive Weather Map New forecast layout! Learn more

10-Day Weather Forecast

Advertisements
Track Severe Weather on mobile